Time;durP1;ratioP1;P1;durP2;ratioP2;P2;SDS_P1;SDS_P2;PMS_P1;PMS_P2;Temp;Humidity;BMP_temperature;BMP_pressure;BME280_temperature;BME280_humidity;BME280_pressure;Samples;Min_cycle;Max_cycle;Signal;HPM_P1;HPM_P2
2021/01/02 00:00:58;;;;;;;39.78;20.40;;;;;;;3.55;100.00;100262.53;5242837;28;20024;-81
2021/01/02 00:03:50;;;;;;;42.35;19.98;;;;;;;3.43;100.00;100256.69;5242212;28;20044;-81
2021/01/02 00:06:26;;;;;;;40.25;19.63;;;;;;;3.43;100.00;100252.38;5243881;28;20020;-81
2021/01/02 00:09:04;;;;;;;38.78;19.60;;;;;;;3.48;100.00;100255.75;5244815;28;20029;-81
2021/01/02 00:12:01;;;;;;;40.33;19.88;;;;;;;3.48;100.00;100260.03;5239406;28;20028;-81
2021/01/02 00:14:56;;;;;;;43.45;20.00;;;;;;;3.58;100.00;100257.34;5243539;28;20017;-81
2021/01/02 00:17:38;;;;;;;40.20;19.83;;;;;;;3.61;100.00;100255.56;5242252;28;20056;-81
2021/01/02 00:20:42;;;;;;;35.17;18.90;;;;;;;3.57;100.00;100259.94;5240184;28;20395;-81
2021/01/02 00:23:54;;;;;;;39.90;20.30;;;;;;;3.43;100.00;100259.25;5236030;28;20471;-81
2021/01/02 00:26:24;;;;;;;42.90;21.00;;;;;;;3.36;100.00;100260.22;5235629;28;20048;-81
2021/01/02 00:28:56;;;;;;;39.83;19.77;;;;;;;3.37;100.00;100261.94;5243484;28;20021;-81
2021/01/02 00:31:51;;;;;;;41.88;19.42;;;;;;;3.30;100.00;100270.59;5243063;28;20063;-81
2021/01/02 00:34:35;;;;;;;39.97;20.25;;;;;;;3.29;100.00;100263.72;5243904;28;20020;-81
2021/01/02 00:37:13;;;;;;;46.17;20.30;;;;;;;3.21;100.00;100266.38;5243380;28;20029;-80
2021/01/02 00:39:58;;;;;;;41.33;20.10;;;;;;;3.29;100.00;100263.72;5248268;28;20020;-81
2021/01/02 00:42:30;;;;;;;44.07;21.00;;;;;;;3.25;100.00;100272.38;5242962;28;20025;-81
2021/01/02 00:45:04;;;;;;;40.28;20.98;;;;;;;3.37;100.00;100267.09;5243231;28;20024;-81
2021/01/02 00:47:38;;;;;;;44.63;20.80;;;;;;;3.39;100.00;100265.34;5239277;28;20119;-81
2021/01/02 00:50:11;;;;;;;42.65;20.95;;;;;;;3.52;100.00;100274.66;5222681;28;20024;-81
2021/01/02 00:52:45;;;;;;;40.72;20.67;;;;;;;3.54;100.00;100268.59;5232044;28;20108;-81
2021/01/02 00:55:24;;;;;;;39.42;20.23;;;;;;;3.50;100.00;100276.41;5243014;28;20506;-81
2021/01/02 00:58:22;;;;;;;44.35;20.52;;;;;;;3.43;100.00;100270.47;5243360;28;20375;-81
2021/01/02 01:01:05;;;;;;;41.55;20.63;;;;;;;3.38;100.00;100279.13;5245275;28;20025;-81
2021/01/02 01:03:50;;;;;;;41.15;21.02;;;;;;;3.24;100.00;100275.84;5246943;28;20115;-81
2021/01/02 01:06:22;;;;;;;42.90;21.67;;;;;;;3.30;100.00;100280.94;5244723;28;20502;-81
2021/01/02 01:08:53;;;;;;;44.40;21.38;;;;;;;3.26;100.00;100274.09;5248428;28;20036;-81
2021/01/02 01:11:33;;;;;;;42.20;20.35;;;;;;;3.39;100.00;100281.66;5251249;28;20017;-81
2021/01/02 01:14:04;;;;;;;38.88;20.02;;;;;;;3.28;100.00;100283.53;5245753;28;20013;-81
2021/01/02 01:16:44;;;;;;;47.58;20.75;;;;;;;3.18;100.00;100286.25;5247439;28;20026;-81
2021/01/02 01:19:18;;;;;;;45.35;21.48;;;;;;;3.12;100.00;100284.56;5246875;28;20063;-81
2021/01/02 01:21:51;;;;;;;42.95;21.05;;;;;;;3.07;100.00;100278.63;5245913;28;20090;-81
2021/01/02 01:24:45;;;;;;;42.88;20.95;;;;;;;3.09;100.00;100286.31;5245799;28;20024;-81
2021/01/02 01:27:30;;;;;;;42.80;21.25;;;;;;;2.99;100.00;100282.97;5244253;28;20972;-81
2021/01/02 01:30:01;;;;;;;45.35;20.17;;;;;;;3.18;100.00;100286.25;5243172;28;20111;-81
2021/01/02 01:32:35;;;;;;;41.47;20.85;;;;;;;3.20;100.00;100284.50;5230614;28;20484;-81
2021/01/02 01:35:06;;;;;;;37.55;18.80;;;;;;;3.25;100.00;100287.88;5242275;28;20024;-81
2021/01/02 01:37:41;;;;;;;40.05;18.33;;;;;;;3.21;100.00;100293.94;5241631;28;20522;-81
2021/01/02 01:40:14;;;;;;;38.72;19.55;;;;;;;3.17;100.00;100290.53;5238941;28;20471;-81
2021/01/02 01:42:49;;;;;;;42.58;18.02;;;;;;;3.25;100.00;100293.03;5237861;28;20033;-81
2021/01/02 01:45:46;;;;;;;36.95;17.33;;;;;;;3.26;100.00;100289.59;5235380;28;20025;-81
2021/01/02 01:48:44;;;;;;;34.60;16.98;;;;;;;3.22;100.00;100293.06;5233745;28;20102;-81
2021/01/02 01:51:43;;;;;;;37.67;17.08;;;;;;;3.37;100.00;100293.75;5235808;28;20527;-81
2021/01/02 01:54:26;;;;;;;34.13;16.58;;;;;;;3.36;100.00;100288.63;5231195;28;20483;-81
2021/01/02 01:57:03;;;;;;;36.22;17.17;;;;;;;3.34;100.00;100292.94;5236633;28;20125;-81
2021/01/02 02:00:05;;;;;;;35.40;17.35;;;;;;;3.26;100.00;100300.78;5234393;28;20114;-82
2021/01/02 02:02:47;;;;;;;31.42;15.23;;;;;;;3.22;100.00;100290.50;5227345;28;20055;-81
2021/01/02 02:05:18;;;;;;;34.85;16.42;;;;;;;3.17;100.00;100289.69;5236433;28;20032;-81
2021/01/02 02:08:10;;;;;;;34.17;15.73;;;;;;;3.15;100.00;100296.56;5235875;28;20052;-81
2021/01/02 02:11:01;;;;;;;31.92;15.65;;;;;;;3.27;100.00;100293.88;5239768;28;20028;-81
2021/01/02 02:13:41;;;;;;;33.20;15.60;;;;;;;3.24;100.00;100296.50;5242263;28;20017;-81
2021/01/02 02:16:12;;;;;;;33.67;15.80;;;;;;;3.20;100.00;100300.00;5237735;28;20494;-81
2021/01/02 02:18:45;;;;;;;32.95;16.23;;;;;;;3.01;100.00;100293.31;5237766;28;20037;-80
2021/01/02 02:21:27;;;;;;;30.92;14.73;;;;;;;3.09;100.00;100301.81;5235119;28;20052;-81
2021/01/02 02:24:02;;;;;;;28.73;15.18;;;;;;;3.14;100.00;100297.44;5237940;28;20108;-81
2021/01/02 02:26:34;;;;;;;32.22;15.93;;;;;;;3.16;100.00;100298.31;5234318;28;20032;-81
2021/01/02 02:29:17;;;;;;;28.98;14.93;;;;;;;3.06;100.00;100301.84;5233652;28;20029;-81
2021/01/02 02:31:48;;;;;;;32.35;15.23;;;;;;;3.11;100.00;100300.94;5234373;28;20035;-81
2021/01/02 02:34:19;;;;;;;30.98;14.35;;;;;;;3.15;100.00;100291.41;5245143;28;20020;-81
2021/01/02 02:36:49;;;;;;;31.88;15.45;;;;;;;2.99;100.00;100303.63;5245847;28;20025;-81
2021/01/02 02:39:20;;;;;;;31.63;14.75;;;;;;;3.02;100.00;100300.19;5249939;28;20462;-81
2021/01/02 02:41:51;;;;;;;30.92;15.35;;;;;;;3.07;100.00;100304.44;5245778;28;20032;-81
2021/01/02 02:44:36;;;;;;;30.77;14.57;;;;;;;3.10;100.00;100304.38;5244908;28;20029;-81
2021/01/02 02:47:06;;;;;;;30.88;15.18;;;;;;;3.06;100.00;100309.59;5245539;28;20090;-81
2021/01/02 02:49:42;;;;;;;30.33;15.05;;;;;;;3.02;100.00;100310.50;5244989;28;20507;-81
2021/01/02 02:52:30;;;;;;;31.80;15.00;;;;;;;2.91;100.00;100313.19;5243936;28;20703;-81
2021/01/02 02:55:01;;;;;;;34.28;15.93;;;;;;;2.85;100.00;100313.22;5245388;28;20059;-81
2021/01/02 02:57:33;;;;;;;34.10;15.20;;;;;;;2.89;100.00;100311.47;5244132;28;20028;-81
2021/01/02 03:00:04;;;;;;;32.20;15.43;;;;;;;2.77;100.00;100314.16;5244883;28;20089;-81
2021/01/02 03:02:35;;;;;;;30.73;15.02;;;;;;;2.76;100.00;100315.91;5245003;28;20475;-81
2021/01/02 03:05:10;;;;;;;31.80;15.00;;;;;;;2.75;100.00;100313.31;5245114;28;20032;-81
2021/01/02 03:07:42;;;;;;;32.13;15.98;;;;;;;2.80;100.00;100321.84;5243804;28;20103;-81
2021/01/02 03:10:15;;;;;;;32.33;14.52;;;;;;;2.93;100.00;100320.91;5249398;28;20135;-81
2021/01/02 03:12:50;;;;;;;34.03;15.20;;;;;;;2.90;100.00;100320.94;5237286;28;20047;-81
2021/01/02 03:15:23;;;;;;;31.92;14.85;;;;;;;2.99;100.00;100320.84;5233674;28;20483;-81
2021/01/02 03:17:54;;;;;;;30.92;15.77;;;;;;;3.04;100.00;100330.25;5234164;28;20020;-81
2021/01/02 03:20:24;;;;;;;31.58;16.15;;;;;;;3.00;100.00;100330.31;5235389;28;20036;-81
2021/01/02 03:22:55;;;;;;;30.38;15.23;;;;;;;3.00;100.00;100332.88;5232367;28;20086;-81
2021/01/02 03:25:25;;;;;;;30.17;15.60;;;;;;;2.99;100.00;100331.19;5232932;28;20021;-81
2021/01/02 03:27:56;;;;;;;33.15;17.10;;;;;;;3.01;100.00;100335.44;5234611;28;20032;-81
2021/01/02 03:30:27;;;;;;;35.25;17.77;;;;;;;2.94;100.00;100332.91;5234213;28;20055;-81
2021/01/02 03:32:57;;;;;;;40.75;17.58;;;;;;;2.97;100.00;100333.75;5232616;28;20025;-81
2021/01/02 03:35:27;;;;;;;37.15;17.73;;;;;;;3.00;100.00;100338.06;5231029;28;20045;-81
2021/01/02 03:37:58;;;;;;;34.78;16.67;;;;;;;3.00;100.00;100338.06;5236534;28;20028;-81
2021/01/02 03:40:28;;;;;;;37.53;17.33;;;;;;;3.04;100.00;100348.31;5236043;28;20021;-81
2021/01/02 03:42:58;;;;;;;39.28;17.63;;;;;;;3.07;100.00;100344.84;5236868;28;20456;-81
2021/01/02 03:45:29;;;;;;;36.17;17.60;;;;;;;3.07;100.00;100347.44;5232417;28;20029;-81
2021/01/02 03:47:59;;;;;;;33.75;17.45;;;;;;;3.11;100.00;100347.41;5232884;28;20570;-81
2021/01/02 03:50:29;;;;;;;35.08;18.02;;;;;;;3.21;100.00;100337.84;5234409;28;20105;-81
2021/01/02 03:53:00;;;;;;;34.10;17.00;;;;;;;3.32;100.00;100328.25;5232681;28;20020;-81
2021/01/02 03:55:30;;;;;;;32.03;17.23;;;;;;;3.26;100.00;100339.50;5232490;28;20024;-81
2021/01/02 03:58:01;;;;;;;39.35;17.08;;;;;;;3.19;100.00;100339.59;5232700;28;20567;-81
2021/01/02 04:00:31;;;;;;;37.53;17.67;;;;;;;3.15;100.00;100335.28;5229791;28;20643;-81
2021/01/02 04:03:01;;;;;;;31.02;15.77;;;;;;;3.44;100.00;100333.28;5234611;28;20103;-81
2021/01/02 04:05:33;;;;;;;30.30;16.35;;;;;;;3.31;100.00;100331.69;5233843;28;20032;-81
2021/01/02 04:08:04;;;;;;;33.53;16.85;;;;;;;3.40;100.00;100335.03;5233466;28;20025;-81
2021/01/02 04:10:34;;;;;;;32.03;16.35;;;;;;;3.27;100.00;100332.59;5231988;28;20037;-81
2021/01/02 04:13:05;;;;;;;40.22;17.30;;;;;;;3.20;100.00;100341.28;5234693;28;20016;-81
2021/01/02 04:15:35;;;;;;;32.70;16.23;;;;;;;3.14;100.00;100344.78;5234727;28;20054;-81
2021/01/02 04:18:05;;;;;;;36.95;17.90;;;;;;;3.13;100.00;100344.78;5232151;28;20043;-81
2021/01/02 04:20:36;;;;;;;37.55;18.35;;;;;;;3.05;100.00;100338.84;5233533;28;20059;-81
2021/01/02 04:23:06;;;;;;;33.35;17.35;;;;;;;3.11;100.00;100343.94;5237706;28;20071;-81
2021/01/02 04:25:38;;;;;;;36.25;18.55;;;;;;;3.09;100.00;100333.66;5233890;28;20082;-81
2021/01/02 04:28:10;;;;;;;38.20;18.10;;;;;;;3.08;100.00;100336.25;5232476;28;20020;-81
2021/01/02 04:30:41;;;;;;;38.33;17.77;;;;;;;3.19;100.00;100334.41;5233064;28;20021;-81
2021/01/02 04:33:11;;;;;;;35.50;18.70;;;;;;;3.20;100.00;100325.81;5234255;28;20015;-81
2021/01/02 04:35:42;;;;;;;34.65;18.60;;;;;;;3.26;100.00;100336.94;5232434;28;20032;-81
2021/01/02 04:38:12;;;;;;;35.38;17.95;;;;;;;3.24;100.00;100338.69;5232978;28;20025;-81
2021/01/02 04:40:42;;;;;;;34.88;18.27;;;;;;;3.24;100.00;100335.22;5235680;28;20056;-81
2021/01/02 04:43:13;;;;;;;36.92;17.83;;;;;;;3.29;100.00;100336.03;5236045;28;20032;-81
2021/01/02 04:45:43;;;;;;;40.92;19.20;;;;;;;3.26;100.00;100333.47;5227921;28;20029;-81
2021/01/02 04:48:13;;;;;;;40.22;18.95;;;;;;;3.23;100.00;100334.34;5252323;28;20012;-81
2021/01/02 04:50:45;;;;;;;40.15;18.80;;;;;;;3.25;100.00;100345.53;5257644;28;20090;-81
2021/01/02 04:53:16;;;;;;;33.40;18.75;;;;;;;3.27;100.00;100342.94;5241175;28;20078;-81
2021/01/02 04:55:47;;;;;;;40.20;18.60;;;;;;;3.30;100.00;100340.31;5241567;28;20020;-81
2021/01/02 04:58:18;;;;;;;33.58;18.48;;;;;;;3.39;100.00;100343.66;5242704;28;20013;-81
2021/01/02 05:00:52;;;;;;;37.92;18.83;;;;;;;3.34;100.00;100347.19;5242780;28;20036;-81
2021/01/02 05:03:24;;;;;;;36.53;18.73;;;;;;;3.36;100.00;100348.00;5240343;28;20060;-81
2021/01/02 05:05:54;;;;;;;37.47;18.85;;;;;;;3.37;100.00;100349.72;5242380;28;20026;-81
2021/01/02 05:08:24;;;;;;;36.13;18.60;;;;;;;3.33;100.00;100340.31;5243062;28;20020;-81
2021/01/02 05:11:02;;;;;;;35.00;17.83;;;;;;;3.37;100.00;100344.56;5241195;28;20020;-81
2021/01/02 05:13:34;;;;;;;40.80;19.00;;;;;;;3.44;100.00;100344.47;5242334;28;20024;-81
2021/01/02 05:16:19;;;;;;;34.97;19.00;;;;;;;3.51;100.00;100342.69;5240245;28;20017;-81
2021/01/02 05:18:57;;;;;;;32.75;17.05;;;;;;;3.56;100.00;100346.91;5242735;28;20036;-81
2021/01/02 05:21:30;;;;;;;35.42;17.90;;;;;;;3.53;100.00;100346.09;5242506;28;20035;-81
2021/01/02 05:24:05;;;;;;;34.50;18.52;;;;;;;3.49;100.00;100349.56;5237279;28;20025;-81
2021/01/02 05:26:38;;;;;;;36.65;18.20;;;;;;;3.47;100.00;100343.56;5242646;28;20493;-81
2021/01/02 05:29:18;;;;;;;39.10;18.73;;;;;;;3.39;100.00;100345.41;5239018;28;20024;-81
2021/01/02 05:31:51;;;;;;;33.78;17.33;;;;;;;3.40;100.00;100350.53;5242635;28;20150;-81
2021/01/02 05:34:27;;;;;;;38.08;19.15;;;;;;;3.25;100.00;100348.13;5241492;28;20024;-81
2021/01/02 05:37:03;;;;;;;33.67;18.13;;;;;;;3.23;100.00;100349.00;5242897;28;20174;-81
2021/01/02 05:39:49;;;;;;;38.63;18.92;;;;;;;3.33;100.00;100359.22;5248269;28;20421;-81
2021/01/02 05:42:20;;;;;;;33.60;18.50;;;;;;;3.43;100.00;100357.41;5236873;28;20025;-81
2021/01/02 05:44:57;;;;;;;37.55;18.65;;;;;;;3.45;100.00;100360.81;5239958;28;20115;-81
2021/01/02 05:47:28;;;;;;;40.50;19.30;;;;;;;3.38;100.00;100356.59;5246159;28;20032;-81
2021/01/02 05:50:02;;;;;;;39.83;18.65;;;;;;;3.51;100.00;100360.78;5246355;28;20685;-86
2021/01/02 05:52:33;;;;;;;40.70;18.63;;;;;;;3.40;100.00;100366.03;5246211;28;20052;-80
2021/01/02 05:55:03;;;;;;;37.55;19.52;;;;;;;3.39;100.00;100368.63;5245907;28;20063;-82
2021/01/02 05:57:33;;;;;;;37.72;19.70;;;;;;;3.41;100.00;100372.06;5244650;28;20020;-80
2021/01/02 06:00:05;;;;;;;35.88;19.02;;;;;;;3.22;100.00;100381.69;5244682;28;20586;-79
2021/01/02 06:02:37;;;;;;;35.72;19.02;;;;;;;3.21;100.00;100379.16;5250976;28;20028;-82
2021/01/02 06:05:09;;;;;;;35.78;19.80;;;;;;;3.18;100.00;100379.19;5245789;28;20674;-81
2021/01/02 06:07:48;;;;;;;37.40;19.00;;;;;;;3.11;100.00;100382.66;5246035;28;20032;-81
2021/01/02 06:10:18;;;;;;;33.63;19.83;;;;;;;3.11;100.00;100391.28;5245965;28;20123;-82
2021/01/02 06:12:48;;;;;;;33.97;18.98;;;;;;;3.09;100.00;100392.16;5245961;28;20103;-82
2021/01/02 06:15:19;;;;;;;40.03;19.83;;;;;;;3.06;100.00;100389.59;5245284;28;20031;-82
2021/01/02 06:17:49;;;;;;;40.00;20.65;;;;;;;3.06;100.00;100387.88;5245561;28;20608;-80
2021/01/02 06:20:20;;;;;;;39.13;19.92;;;;;;;3.09;100.00;100394.72;5244110;28;20043;-82
2021/01/02 06:22:50;;;;;;;39.83;20.20;;;;;;;2.98;100.00;100394.81;5245448;28;20020;-82
2021/01/02 06:25:20;;;;;;;42.13;19.73;;;;;;;2.85;100.00;100397.53;5245373;28;20423;-83
2021/01/02 06:27:51;;;;;;;39.58;20.98;;;;;;;2.83;100.00;100399.25;5245641;28;20039;-82
2021/01/02 06:30:21;;;;;;;37.60;19.58;;;;;;;2.85;100.00;100403.53;5245183;28;20035;-82
2021/01/02 06:32:51;;;;;;;34.85;18.52;;;;;;;2.90;100.00;100403.50;5245084;28;20033;-80
2021/01/02 06:35:22;;;;;;;37.92;19.75;;;;;;;2.93;100.00;100403.47;5245378;28;20032;-80
2021/01/02 06:37:55;;;;;;;37.70;19.60;;;;;;;2.77;100.00;100401.88;5245018;28;20035;-82
2021/01/02 06:40:39;;;;;;;36.67;19.88;;;;;;;2.84;100.00;100411.28;5251648;28;20016;-82
2021/01/02 06:43:18;;;;;;;32.58;18.52;;;;;;;2.80;100.00;100419.91;5245491;28;20435;-82
2021/01/02 06:45:53;;;;;;;35.03;18.25;;;;;;;2.84;100.00;100417.28;5245119;28;20025;-82
2021/01/02 06:48:24;;;;;;;;;;;;;;;2.80;100.00;100422.47;5244385;28;20024;-83
2021/01/02 06:50:59;;;;;;;35.58;18.30;;;;;;;2.79;100.00;100425.94;5244485;28;19909;-83
2021/01/02 06:53:36;;;;;;;36.70;19.05;;;;;;;2.63;100.00;100425.19;5244578;28;20081;-82
2021/01/02 06:56:08;;;;;;;36.03;18.90;;;;;;;2.57;100.00;100425.25;5245970;28;20028;-82
2021/01/02 06:58:48;;;;;;;34.05;18.35;;;;;;;2.68;100.00;100427.75;5244133;28;20022;-81
2021/01/02 07:01:19;;;;;;;30.88;17.08;;;;;;;2.73;100.00;100428.56;5243519;28;20028;-82
2021/01/02 07:03:50;;;;;;;32.72;18.10;;;;;;;2.51;100.00;100438.16;5243051;28;20029;-82
2021/01/02 07:06:23;;;;;;;32.50;17.27;;;;;;;2.46;100.00;100428.72;5244287;28;20025;-82
2021/01/02 07:08:57;;;;;;;31.50;17.58;;;;;;;2.19;100.00;100436.59;5245715;28;20047;-82
2021/01/02 07:11:30;;;;;;;37.05;18.58;;;;;;;2.04;100.00;100431.50;5248211;28;20032;-81
2021/01/02 07:14:09;;;;;;;32.65;18.40;;;;;;;1.98;100.00;100437.53;5243887;28;20050;-81
2021/01/02 07:16:51;;;;;;;37.78;18.42;;;;;;;2.04;100.00;100440.13;5244659;28;20029;-82
2021/01/02 07:19:29;;;;;;;34.72;18.25;;;;;;;1.95;100.00;100439.25;5244383;28;20098;-80
2021/01/02 07:22:08;;;;;;;32.53;18.25;;;;;;;1.98;100.00;100441.84;5244774;28;20032;-81
2021/01/02 07:24:50;;;;;;;34.95;18.38;;;;;;;1.92;100.00;100441.84;5228945;28;20036;-82
2021/01/02 07:27:28;;;;;;;39.47;20.30;;;;;;;1.92;100.00;100452.16;5223412;28;20025;-82
2021/01/02 07:30:07;;;;;;;40.38;18.52;;;;;;;2.06;100.00;100451.28;5223666;28;20100;-82
2021/01/02 07:32:39;;;;;;;33.97;18.10;;;;;;;2.06;100.00;100455.53;5223775;28;20108;-82
2021/01/02 07:35:11;;;;;;;35.92;18.55;;;;;;;2.12;100.00;100456.38;5223521;28;20020;-82
2021/01/02 07:37:44;;;;;;;34.50;18.95;;;;;;;2.08;100.00;100453.81;5223539;28;20029;-82
2021/01/02 07:40:17;;;;;;;36.50;18.75;;;;;;;2.12;100.00;100452.94;5241500;28;20085;-79
2021/01/02 07:42:48;;;;;;;36.85;18.20;;;;;;;2.14;100.00;100459.81;5243015;28;20109;-82
2021/01/02 07:45:29;;;;;;;33.78;18.42;;;;;;;2.17;100.00;100464.09;5243266;28;20154;-79
2021/01/02 07:48:00;;;;;;;35.13;18.55;;;;;;;2.12;100.00;100461.53;5249113;28;20025;-83
2021/01/02 07:50:33;;;;;;;37.50;19.20;;;;;;;2.21;100.00;100465.81;5242933;28;20024;-82
2021/01/02 07:53:04;;;;;;;37.50;19.35;;;;;;;2.26;100.00;100469.22;5236460;28;20024;-82
2021/01/02 07:55:35;;;;;;;36.80;19.90;;;;;;;2.36;100.00;100476.06;5236523;28;20534;-80
2021/01/02 07:58:06;;;;;;;35.70;19.20;;;;;;;2.39;100.00;100482.06;5243282;28;20028;-80
2021/01/02 08:00:37;;;;;;;35.05;19.38;;;;;;;2.31;100.00;100482.97;5238630;28;20548;-80
2021/01/02 08:03:07;;;;;;;37.03;19.98;;;;;;;2.39;100.00;100483.78;5242968;28;20029;-81
2021/01/02 08:05:38;;;;;;;39.97;21.55;;;;;;;2.47;100.00;100482.03;5242781;28;20024;-80
2021/01/02 08:08:08;;;;;;;38.17;20.63;;;;;;;2.51;100.00;100481.97;5243340;28;20025;-80
2021/01/02 08:10:41;;;;;;;40.47;20.20;;;;;;;2.57;100.00;100486.25;5247990;28;20115;-80
2021/01/02 08:13:16;;;;;;;35.78;19.80;;;;;;;2.61;100.00;100493.13;5242769;28;20554;-80
2021/01/02 08:15:51;;;;;;;35.75;19.92;;;;;;;2.67;100.00;100493.09;5242542;28;20422;-80
2021/01/02 08:18:22;;;;;;;37.85;19.98;;;;;;;2.81;100.00;100493.84;5243643;28;20024;-80
2021/01/02 08:21:00;;;;;;;36.97;19.02;;;;;;;2.79;100.00;100499.03;5242530;28;20086;-80
2021/01/02 08:23:31;;;;;;;35.85;19.27;;;;;;;2.74;100.00;100499.94;5242016;28;20039;-80
2021/01/02 08:26:02;;;;;;;35.78;19.58;;;;;;;2.85;100.00;100500.72;5245125;28;20094;-80
2021/01/02 08:28:33;;;;;;;37.85;20.13;;;;;;;2.78;100.00;100502.50;5244553;28;20421;-81
2021/01/02 08:31:04;;;;;;;36.70;19.13;;;;;;;2.93;100.00;100511.84;5242904;28;20032;-80
2021/01/02 08:33:35;;;;;;;37.80;19.45;;;;;;;2.90;100.00;100499.84;5241365;28;20101;-81
2021/01/02 08:36:12;;;;;;;36.13;18.70;;;;;;;2.90;100.00;100501.56;5242135;28;20028;-80
2021/01/02 08:38:54;;;;;;;34.08;19.02;;;;;;;2.89;100.00;100498.09;5241519;28;20048;-80
2021/01/02 08:41:26;;;;;;;35.53;19.15;;;;;;;3.17;100.00;100499.66;5242827;28;20032;-80
2021/01/02 08:43:57;;;;;;;32.65;18.48;;;;;;;3.20;100.00;100506.53;5242546;28;20031;-80
2021/01/02 08:46:27;;;;;;;37.25;20.25;;;;;;;3.17;100.00;100512.56;5241113;28;20404;-80
2021/01/02 08:48:57;;;;;;;32.53;19.42;;;;;;;3.14;100.00;100509.13;5242070;28;20541;-80
2021/01/02 08:51:28;;;;;;;35.30;19.15;;;;;;;3.16;100.00;100505.69;5247412;28;20032;-81
2021/01/02 08:54:13;;;;;;;36.40;19.35;;;;;;;3.22;100.00;100515.09;5240869;28;20029;-80
2021/01/02 08:56:43;;;;;;;37.33;19.80;;;;;;;3.30;100.00;100510.72;5245079;28;20498;-80
2021/01/02 08:59:13;;;;;;;34.72;19.98;;;;;;;3.24;100.00;100513.38;5242061;28;20031;-80
2021/01/02 09:01:44;;;;;;;35.05;19.95;;;;;;;3.31;100.00;100515.91;5233566;28;20395;-80
2021/01/02 09:04:14;;;;;;;36.25;20.35;;;;;;;3.41;100.00;100514.97;5221328;28;20025;-80
2021/01/02 09:06:44;;;;;;;33.50;19.00;;;;;;;3.53;100.00;100522.59;5232847;28;20081;-80
2021/01/02 09:09:15;;;;;;;34.70;19.40;;;;;;;3.58;100.00;100517.41;5245658;28;20107;-81
2021/01/02 09:11:49;;;;;;;34.55;19.08;;;;;;;3.56;100.00;100514.81;5242642;28;20024;-81
2021/01/02 09:14:20;;;;;;;33.90;18.75;;;;;;;3.62;100.00;100519.94;5242322;28;20029;-80
2021/01/02 09:17:03;;;;;;;37.22;19.65;;;;;;;3.61;100.00;100518.25;5243103;28;20021;-80
2021/01/02 09:19:34;;;;;;;35.17;19.38;;;;;;;3.84;100.00;100509.41;5243495;28;20043;-81
2021/01/02 09:22:16;;;;;;;31.88;17.80;;;;;;;4.18;100.00;100515.06;5246926;28;20029;-80
2021/01/02 09:24:46;;;;;;;32.20;19.00;;;;;;;4.18;100.00;100521.13;5244798;28;20074;-81
2021/01/02 09:27:16;;;;;;;34.00;19.25;;;;;;;4.26;100.00;100518.44;5245839;28;20017;-80
2021/01/02 09:29:47;;;;;;;33.10;18.63;;;;;;;4.28;100.00;100517.53;5245736;28;20029;-80
2021/01/02 09:32:17;;;;;;;30.23;18.40;;;;;;;4.40;100.00;100529.47;5245458;28;20030;-80
2021/01/02 09:34:47;;;;;;;36.70;19.45;;;;;;;4.53;100.00;100524.16;5239613;28;20085;-80
2021/01/02 09:37:17;;;;;;;35.03;19.10;;;;;;;4.79;99.87;100522.06;5228490;28;20035;-80
2021/01/02 09:40:08;;;;;;;35.13;19.48;;;;;;;4.86;97.54;100523.72;5252498;28;20462;-80
2021/01/02 09:42:38;;;;;;;30.25;18.08;;;;;;;4.94;96.72;100521.03;5244706;28;20032;-81
2021/01/02 09:45:09;;;;;;;31.55;17.15;;;;;;;4.91;96.06;100524.50;5246190;28;20115;-81
2021/01/02 09:47:40;;;;;;;31.10;18.02;;;;;;;4.88;97.65;100532.31;5244963;28;20031;-80
2021/01/02 09:50:10;;;;;;;31.98;18.42;;;;;;;4.94;97.57;100526.22;5246116;28;20052;-81
2021/01/02 09:52:40;;;;;;;31.85;18.27;;;;;;;5.10;96.86;100528.56;5246062;28;20111;-81
2021/01/02 09:55:11;;;;;;;34.08;18.63;;;;;;;4.92;97.07;100528.81;5245771;28;20481;-84
2021/01/02 09:57:42;;;;;;;32.60;18.05;;;;;;;4.98;97.36;100533.06;5246357;28;20029;-79
2021/01/02 10:00:12;;;;;;;31.05;17.77;;;;;;;4.95;98.04;100540.88;5244386;28;20028;-79
2021/01/02 10:02:43;;;;;;;31.77;18.38;;;;;;;4.93;97.83;100537.41;5246046;28;20029;-84
2021/01/02 10:05:18;;;;;;;34.60;18.40;;;;;;;4.96;97.39;100533.06;5244603;28;20020;-83
2021/01/02 10:07:49;;;;;;;;;;;;;;;4.89;98.53;100534.03;5251613;28;20035;-80
2021/01/02 10:10:20;;;;;;;34.70;18.63;;;;;;;4.85;99.70;100534.97;5241998;28;20349;-80
2021/01/02 10:12:50;;;;;;;29.92;17.50;;;;;;;4.95;100.00;100533.94;5240118;28;20028;-81
2021/01/02 10:15:20;;;;;;;31.90;18.92;;;;;;;4.79;98.79;100531.59;5244848;28;20516;-82
2021/01/02 10:17:51;;;;;;;36.25;19.50;;;;;;;4.91;97.51;100527.09;5240772;28;20034;-82
2021/01/02 10:20:21;;;;;;;31.27;18.20;;;;;;;5.08;96.65;100534.63;5244640;28;20027;-82
2021/01/02 10:22:52;;;;;;;31.75;17.60;;;;;;;5.01;96.91;100527.81;5245194;28;20032;-81
2021/01/02 10:25:22;;;;;;;31.33;18.00;;;;;;;5.16;95.51;100528.44;5244733;28;20510;-81
2021/01/02 10:27:53;;;;;;;31.90;17.77;;;;;;;5.04;95.09;100528.66;5238162;28;20032;-82
2021/01/02 10:30:23;;;;;;;30.52;17.40;;;;;;;5.09;95.77;100521.66;5245252;28;20048;-82
2021/01/02 10:32:53;;;;;;;30.95;16.35;;;;;;;5.11;96.69;100525.09;5246032;28;20020;-82
2021/01/02 10:35:24;;;;;;;32.05;17.73;;;;;;;4.81;97.24;100530.66;5248220;28;20028;-82
2021/01/02 10:37:54;;;;;;;31.83;16.98;;;;;;;4.65;96.66;100523.97;5248783;28;20052;-82
2021/01/02 10:40:24;;;;;;;30.20;18.15;;;;;;;4.47;97.56;100519.03;5259202;28;20371;-82
2021/01/02 10:42:55;;;;;;;32.53;18.00;;;;;;;4.54;97.55;100525.88;5244073;28;20024;-82
2021/01/02 10:45:25;;;;;;;33.88;18.40;;;;;;;4.42;98.46;100522.53;5251104;28;20458;-82
2021/01/02 10:47:55;;;;;;;35.90;19.17;;;;;;;4.38;100.00;100521.75;5245427;28;20013;-82
2021/01/02 10:50:25;;;;;;;34.15;19.20;;;;;;;4.52;100.00;100526.75;5245630;28;20077;-81
2021/01/02 10:52:55;;;;;;;37.40;19.73;;;;;;;4.82;100.00;100516.84;5250231;28;20063;-82
2021/01/02 10:55:26;;;;;;;34.70;19.60;;;;;;;4.89;100.00;100513.31;5244597;28;20478;-81
2021/01/02 10:57:56;;;;;;;33.80;18.60;;;;;;;5.01;98.83;100518.31;5245057;28;20029;-79
2021/01/02 11:00:27;;;;;;;31.65;18.08;;;;;;;5.10;98.85;100513.00;5246013;28;20020;-82
2021/01/02 11:02:57;;;;;;;32.20;18.13;;;;;;;5.13;96.51;100509.53;5244686;28;20568;-82
2021/01/02 11:05:27;;;;;;;37.38;18.58;;;;;;;5.27;96.09;100513.63;5248009;28;20046;-84
2021/01/02 11:07:58;;;;;;;29.40;16.98;;;;;;;5.32;95.68;100518.72;5237849;28;20075;-80
2021/01/02 11:10:28;;;;;;;30.02;17.30;;;;;;;5.42;95.35;100519.41;5237883;28;20212;-82
2021/01/02 11:13:00;;;;;;;29.52;17.00;;;;;;;5.35;94.05;100509.16;5231727;28;20107;-80
2021/01/02 11:15:31;;;;;;;29.63;16.70;;;;;;;5.38;93.60;100514.31;5236038;28;20044;-81
2021/01/02 11:18:01;;;;;;;33.88;17.48;;;;;;;5.68;93.83;100512.06;5232703;28;20059;-82
2021/01/02 11:20:31;;;;;;;30.45;17.02;;;;;;;5.31;93.28;100510.09;5224855;28;20025;-82
2021/01/02 11:23:02;;;;;;;29.50;17.08;;;;;;;5.49;93.60;100504.63;5231688;28;20055;-82
2021/01/02 11:25:32;;;;;;;32.55;16.70;;;;;;;5.38;94.07;100507.38;5238861;28;20376;-82
2021/01/02 11:28:02;;;;;;;27.92;15.98;;;;;;;5.28;94.27;100502.38;5244049;28;20441;-81
2021/01/02 11:30:33;;;;;;;30.52;16.20;;;;;;;5.53;95.01;100499.38;5244058;28;20086;-81
2021/01/02 11:33:03;;;;;;;30.27;16.33;;;;;;;5.55;93.04;100501.94;5242747;28;20020;-81
2021/01/02 11:35:36;;;;;;;29.00;16.30;;;;;;;5.71;93.89;100496.47;5238935;28;20028;-82
2021/01/02 11:38:06;;;;;;;26.80;15.70;;;;;;;5.75;92.79;100507.63;5230678;28;20077;-82
2021/01/02 11:40:37;;;;;;;26.83;15.63;;;;;;;5.87;93.92;100500.53;5239484;28;20490;-82
2021/01/02 11:43:07;;;;;;;31.25;16.20;;;;;;;5.74;92.05;100504.19;5232999;28;22416;-82